Rechercher aéroport 
image banner adimage banner ad
image banner ad

DAOB - Tiaret / Abdelhafid Boussouf Bou Chekif

Situé à Tiaret, Algeria

ICAO - DAOB, IATA - TID

Données fournies par Airmate  

Information générale

Coordonnées: N35°20'29" E1°28'1"
Élévation : 3244 feet MSL.
 
Voir autres Aéroports à Tiaret Province

Données opérationnelles

Accessible au public
Heure actuelle UTC:
Heure actuelle locale:
Météo
METAR: DAOB 230700Z 23003KT 9999 SCT026 SCT220 17/07 Q1020
TAF: TAF DAOB 230500Z 2306/2406 VRB02KT 9999 FEW026 PROB30 TEMPO 2308/2315 FEW030CB BECMG 2309/2312 24010KT BECMG 2318/2321 VRB02KT
Voir NOTAMs / SUP AIP / TFR affectant cet aéroport [VIEW]
Fréquences de communication: [VIEW]

Pistes:

Identifiant RWYQFULongueur (ft)Largeur (ft)SurfaceLDA (ft)
0881°9843148ASP
26261°9843148

Coordonnées de l'aéroport

Adresse: Tiaret Algeria

Vue satellite de DAOB